sensor_id;sensor_type;location;lat;lon;timestamp;P1;durP1;ratioP1;P2;durP2;ratioP2
6997;SDS011;3539;47.982;12.238;2024-03-08T00:01:37;13.90;;;8.73;;
6997;SDS011;3539;47.982;12.238;2024-03-08T00:04:04;18.07;;;16.27;;
6997;SDS011;3539;47.982;12.238;2024-03-08T00:06:31;19.33;;;17.40;;
6997;SDS011;3539;47.982;12.238;2024-03-08T00:08:58;13.80;;;8.73;;
6997;SDS011;3539;47.982;12.238;2024-03-08T00:11:25;18.23;;;16.33;;
6997;SDS011;3539;47.982;12.238;2024-03-08T00:13:52;14.83;;;9.03;;
6997;SDS011;3539;47.982;12.238;2024-03-08T00:16:18;15.00;;;9.33;;
6997;SDS011;3539;47.982;12.238;2024-03-08T00:18:47;17.77;;;9.40;;
6997;SDS011;3539;47.982;12.238;2024-03-08T00:21:14;16.00;;;8.60;;
6997;SDS011;3539;47.982;12.238;2024-03-08T00:23:41;15.50;;;9.20;;
6997;SDS011;3539;47.982;12.238;2024-03-08T00:26:08;16.73;;;9.47;;
6997;SDS011;3539;47.982;12.238;2024-03-08T00:28:35;14.23;;;8.13;;
6997;SDS011;3539;47.982;12.238;2024-03-08T00:31:02;17.30;;;15.60;;
6997;SDS011;3539;47.982;12.238;2024-03-08T00:33:29;13.30;;;8.43;;
6997;SDS011;3539;47.982;12.238;2024-03-08T00:35:57;17.47;;;15.77;;
6997;SDS011;3539;47.982;12.238;2024-03-08T00:38:24;15.60;;;8.97;;
6997;SDS011;3539;47.982;12.238;2024-03-08T00:40:50;14.43;;;8.70;;
6997;SDS011;3539;47.982;12.238;2024-03-08T00:43:17;17.27;;;9.30;;
6997;SDS011;3539;47.982;12.238;2024-03-08T00:45:44;13.07;;;8.27;;
6997;SDS011;3539;47.982;12.238;2024-03-08T00:48:10;17.73;;;16.03;;
6997;SDS011;3539;47.982;12.238;2024-03-08T00:50:37;14.87;;;8.13;;
6997;SDS011;3539;47.982;12.238;2024-03-08T00:53:05;13.90;;;7.80;;
6997;SDS011;3539;47.982;12.238;2024-03-08T00:55:32;18.03;;;16.23;;
6997;SDS011;3539;47.982;12.238;2024-03-08T00:58:00;12.40;;;8.10;;
6997;SDS011;3539;47.982;12.238;2024-03-08T01:00:27;13.13;;;7.80;;
6997;SDS011;3539;47.982;12.238;2024-03-08T01:02:53;12.97;;;7.53;;
6997;SDS011;3539;47.982;12.238;2024-03-08T01:05:20;14.93;;;8.53;;
6997;SDS011;3539;47.982;12.238;2024-03-08T01:07:48;17.77;;;9.97;;
6997;SDS011;3539;47.982;12.238;2024-03-08T01:10:16;15.77;;;10.33;;
6997;SDS011;3539;47.982;12.238;2024-03-08T01:12:43;18.20;;;10.43;;
6997;SDS011;3539;47.982;12.238;2024-03-08T01:15:10;15.90;;;9.77;;
6997;SDS011;3539;47.982;12.238;2024-03-08T01:17:37;21.40;;;19.20;;
6997;SDS011;3539;47.982;12.238;2024-03-08T01:20:04;18.50;;;9.67;;
6997;SDS011;3539;47.982;12.238;2024-03-08T01:22:32;14.93;;;8.93;;
6997;SDS011;3539;47.982;12.238;2024-03-08T01:24:59;16.63;;;9.03;;
6997;SDS011;3539;47.982;12.238;2024-03-08T01:27:27;18.60;;;9.90;;
6997;SDS011;3539;47.982;12.238;2024-03-08T01:29:53;16.03;;;8.57;;
6997;SDS011;3539;47.982;12.238;2024-03-08T01:32:20;15.90;;;9.10;;
6997;SDS011;3539;47.982;12.238;2024-03-08T01:34:48;18.77;;;16.83;;
6997;SDS011;3539;47.982;12.238;2024-03-08T01:37:14;17.90;;;9.00;;
6997;SDS011;3539;47.982;12.238;2024-03-08T01:39:41;13.93;;;7.83;;
6997;SDS011;3539;47.982;12.238;2024-03-08T01:42:08;18.50;;;16.70;;
6997;SDS011;3539;47.982;12.238;2024-03-08T01:44:39;12.10;;;7.70;;
6997;SDS011;3539;47.982;12.238;2024-03-08T01:47:05;12.77;;;7.67;;
6997;SDS011;3539;47.982;12.238;2024-03-08T01:49:32;13.93;;;8.03;;
6997;SDS011;3539;47.982;12.238;2024-03-08T01:51:59;19.63;;;17.63;;
6997;SDS011;3539;47.982;12.238;2024-03-08T01:54:27;13.87;;;8.90;;
6997;SDS011;3539;47.982;12.238;2024-03-08T01:56:55;15.90;;;8.97;;
6997;SDS011;3539;47.982;12.238;2024-03-08T01:59:23;16.00;;;9.27;;
6997;SDS011;3539;47.982;12.238;2024-03-08T02:01:53;15.87;;;9.23;;
6997;SDS011;3539;47.982;12.238;2024-03-08T02:04:21;15.40;;;8.77;;
6997;SDS011;3539;47.982;12.238;2024-03-08T02:06:49;15.10;;;8.73;;
6997;SDS011;3539;47.982;12.238;2024-03-08T02:09:16;12.23;;;7.93;;
6997;SDS011;3539;47.982;12.238;2024-03-08T02:11:43;14.17;;;9.10;;
6997;SDS011;3539;47.982;12.238;2024-03-08T02:14:10;14.07;;;8.77;;
6997;SDS011;3539;47.982;12.238;2024-03-08T02:16:37;14.37;;;9.07;;
6997;SDS011;3539;47.982;12.238;2024-03-08T02:19:05;14.57;;;8.60;;
6997;SDS011;3539;47.982;12.238;2024-03-08T02:21:36;19.97;;;9.60;;
6997;SDS011;3539;47.982;12.238;2024-03-08T02:24:03;17.27;;;9.77;;
6997;SDS011;3539;47.982;12.238;2024-03-08T02:26:30;13.60;;;8.83;;
6997;SDS011;3539;47.982;12.238;2024-03-08T02:28:57;17.13;;;9.10;;
6997;SDS011;3539;47.982;12.238;2024-03-08T02:31:24;20.80;;;10.40;;
6997;SDS011;3539;47.982;12.238;2024-03-08T02:33:51;16.67;;;9.60;;
6997;SDS011;3539;47.982;12.238;2024-03-08T02:36:17;15.97;;;9.20;;
6997;SDS011;3539;47.982;12.238;2024-03-08T02:38:46;19.67;;;11.10;;
6997;SDS011;3539;47.982;12.238;2024-03-08T02:41:12;19.67;;;10.80;;
6997;SDS011;3539;47.982;12.238;2024-03-08T02:43:39;17.13;;;9.40;;
6997;SDS011;3539;47.982;12.238;2024-03-08T02:46:06;24.70;;;22.10;;
6997;SDS011;3539;47.982;12.238;2024-03-08T02:48:32;16.90;;;10.17;;
6997;SDS011;3539;47.982;12.238;2024-03-08T02:50:59;18.00;;;10.57;;
6997;SDS011;3539;47.982;12.238;2024-03-08T02:53:27;18.07;;;10.03;;
6997;SDS011;3539;47.982;12.238;2024-03-08T02:55:55;18.37;;;9.67;;
6997;SDS011;3539;47.982;12.238;2024-03-08T02:58:22;16.47;;;9.60;;
6997;SDS011;3539;47.982;12.238;2024-03-08T03:00:49;21.17;;;11.27;;
6997;SDS011;3539;47.982;12.238;2024-03-08T03:03:15;18.73;;;10.03;;
6997;SDS011;3539;47.982;12.238;2024-03-08T03:05:42;16.93;;;9.67;;
6997;SDS011;3539;47.982;12.238;2024-03-08T03:08:09;20.47;;;10.23;;
6997;SDS011;3539;47.982;12.238;2024-03-08T03:10:37;18.43;;;10.50;;
6997;SDS011;3539;47.982;12.238;2024-03-08T03:13:05;21.97;;;11.03;;
6997;SDS011;3539;47.982;12.238;2024-03-08T03:15:33;18.13;;;10.53;;
6997;SDS011;3539;47.982;12.238;2024-03-08T03:18:00;16.53;;;10.33;;
6997;SDS011;3539;47.982;12.238;2024-03-08T03:20:26;20.03;;;9.97;;
6997;SDS011;3539;47.982;12.238;2024-03-08T03:22:57;20.30;;;10.60;;
6997;SDS011;3539;47.982;12.238;2024-03-08T03:25:26;16.80;;;10.30;;
6997;SDS011;3539;47.982;12.238;2024-03-08T03:27:59;14.30;;;9.37;;
6997;SDS011;3539;47.982;12.238;2024-03-08T03:30:27;18.83;;;10.90;;
6997;SDS011;3539;47.982;12.238;2024-03-08T03:32:58;18.50;;;9.77;;
6997;SDS011;3539;47.982;12.238;2024-03-08T03:35:25;20.10;;;10.53;;
6997;SDS011;3539;47.982;12.238;2024-03-08T03:37:52;23.90;;;11.37;;
6997;SDS011;3539;47.982;12.238;2024-03-08T03:40:27;17.37;;;10.03;;
6997;SDS011;3539;47.982;12.238;2024-03-08T03:42:54;17.50;;;10.43;;
6997;SDS011;3539;47.982;12.238;2024-03-08T03:45:21;18.70;;;10.33;;
6997;SDS011;3539;47.982;12.238;2024-03-08T03:47:49;19.57;;;10.80;;
6997;SDS011;3539;47.982;12.238;2024-03-08T03:50:17;20.67;;;11.47;;
6997;SDS011;3539;47.982;12.238;2024-03-08T03:52:44;25.67;;;22.93;;
6997;SDS011;3539;47.982;12.238;2024-03-08T03:55:11;18.73;;;10.27;;
6997;SDS011;3539;47.982;12.238;2024-03-08T03:57:38;20.73;;;11.50;;
6997;SDS011;3539;47.982;12.238;2024-03-08T04:00:06;19.63;;;11.20;;
6997;SDS011;3539;47.982;12.238;2024-03-08T04:02:35;19.87;;;11.23;;
6997;SDS011;3539;47.982;12.238;2024-03-08T04:05:05;17.87;;;10.77;;
6997;SDS011;3539;47.982;12.238;2024-03-08T04:07:32;22.70;;;11.17;;
6997;SDS011;3539;47.982;12.238;2024-03-08T04:09:59;19.53;;;10.40;;
6997;SDS011;3539;47.982;12.238;2024-03-08T04:12:26;18.47;;;10.07;;
6997;SDS011;3539;47.982;12.238;2024-03-08T04:14:54;20.63;;;11.97;;
6997;SDS011;3539;47.982;12.238;2024-03-08T04:17:21;19.53;;;10.53;;
6997;SDS011;3539;47.982;12.238;2024-03-08T04:19:49;16.23;;;9.97;;
6997;SDS011;3539;47.982;12.238;2024-03-08T04:22:17;18.17;;;11.43;;
6997;SDS011;3539;47.982;12.238;2024-03-08T04:24:44;21.50;;;11.80;;
6997;SDS011;3539;47.982;12.238;2024-03-08T04:27:21;20.70;;;11.47;;
6997;SDS011;3539;47.982;12.238;2024-03-08T04:29:51;20.20;;;10.57;;
6997;SDS011;3539;47.982;12.238;2024-03-08T04:32:26;19.47;;;11.20;;
6997;SDS011;3539;47.982;12.238;2024-03-08T04:34:57;21.80;;;11.67;;
6997;SDS011;3539;47.982;12.238;2024-03-08T04:37:32;18.97;;;11.33;;
6997;SDS011;3539;47.982;12.238;2024-03-08T04:40:07;17.47;;;11.10;;
6997;SDS011;3539;47.982;12.238;2024-03-08T04:42:34;21.40;;;11.47;;
6997;SDS011;3539;47.982;12.238;2024-03-08T04:45:05;20.77;;;11.73;;
6997;SDS011;3539;47.982;12.238;2024-03-08T04:47:37;20.80;;;11.40;;
6997;SDS011;3539;47.982;12.238;2024-03-08T04:50:05;22.23;;;12.13;;
6997;SDS011;3539;47.982;12.238;2024-03-08T04:52:37;21.23;;;11.20;;
6997;SDS011;3539;47.982;12.238;2024-03-08T04:55:05;23.03;;;12.77;;
6997;SDS011;3539;47.982;12.238;2024-03-08T04:57:35;21.20;;;11.37;;
6997;SDS011;3539;47.982;12.238;2024-03-08T05:00:05;18.90;;;10.93;;
6997;SDS011;3539;47.982;12.238;2024-03-08T11:13:50;13.27;;;11.47;;
6997;SDS011;3539;47.982;12.238;2024-03-08T11:16:36;13.60;;;11.60;;
6997;SDS011;3539;47.982;12.238;2024-03-08T11:19:06;13.63;;;11.33;;
6997;SDS011;3539;47.982;12.238;2024-03-08T11:21:35;13.40;;;11.20;;
6997;SDS011;3539;47.982;12.238;2024-03-08T11:24:06;12.87;;;10.80;;
6997;SDS011;3539;47.982;12.238;2024-03-08T11:26:37;14.43;;;11.63;;
6997;SDS011;3539;47.982;12.238;2024-03-08T11:32:05;12.73;;;11.43;;
6997;SDS011;3539;47.982;12.238;2024-03-08T11:34:33;12.37;;;11.07;;
6997;SDS011;3539;47.982;12.238;2024-03-08T11:37:00;11.47;;;10.27;;
6997;SDS011;3539;47.982;12.238;2024-03-08T11:39:27;10.80;;;9.60;;
6997;SDS011;3539;47.982;12.238;2024-03-08T11:41:55;11.17;;;9.60;;
6997;SDS011;3539;47.982;12.238;2024-03-08T11:44:26;11.40;;;10.00;;
6997;SDS011;3539;47.982;12.238;2024-03-08T11:46:55;11.20;;;9.70;;
6997;SDS011;3539;47.982;12.238;2024-03-08T11:49:21;11.37;;;9.93;;
6997;SDS011;3539;47.982;12.238;2024-03-08T11:51:50;10.33;;;9.13;;
6997;SDS011;3539;47.982;12.238;2024-03-08T11:54:18;12.67;;;9.67;;
6997;SDS011;3539;47.982;12.238;2024-03-08T11:56:46;9.50;;;8.50;;
6997;SDS011;3539;47.982;12.238;2024-03-08T11:59:15;11.93;;;9.70;;
6997;SDS011;3539;47.982;12.238;2024-03-08T12:01:42;12.67;;;9.00;;
6997;SDS011;3539;47.982;12.238;2024-03-08T12:04:11;10.47;;;9.03;;
6997;SDS011;3539;47.982;12.238;2024-03-08T12:06:39;10.87;;;9.70;;
6997;SDS011;3539;47.982;12.238;2024-03-08T12:09:10;11.30;;;9.40;;
6997;SDS011;3539;47.982;12.238;2024-03-08T12:11:38;10.37;;;9.27;;
6997;SDS011;3539;47.982;12.238;2024-03-08T12:14:06;10.67;;;8.87;;
6997;SDS011;3539;47.982;12.238;2024-03-08T12:16:33;10.13;;;8.83;;
6997;SDS011;3539;47.982;12.238;2024-03-08T12:19:00;9.93;;;8.93;;
6997;SDS011;3539;47.982;12.238;2024-03-08T12:21:31;9.93;;;8.70;;
6997;SDS011;3539;47.982;12.238;2024-03-08T12:24:04;10.03;;;8.53;;
6997;SDS011;3539;47.982;12.238;2024-03-08T12:26:35;10.03;;;8.27;;
6997;SDS011;3539;47.982;12.238;2024-03-08T12:29:15;8.33;;;7.43;;
6997;SDS011;3539;47.982;12.238;2024-03-08T12:31:47;10.90;;;7.60;;
6997;SDS011;3539;47.982;12.238;2024-03-08T12:34:15;8.60;;;7.70;;
6997;SDS011;3539;47.982;12.238;2024-03-08T12:36:46;10.27;;;7.43;;
6997;SDS011;3539;47.982;12.238;2024-03-08T12:39:18;7.70;;;6.90;;
6997;SDS011;3539;47.982;12.238;2024-03-08T12:41:47;7.93;;;7.07;;
6997;SDS011;3539;47.982;12.238;2024-03-08T12:44:16;8.70;;;7.77;;
6997;SDS011;3539;47.982;12.238;2024-03-08T12:46:44;8.43;;;7.53;;
6997;SDS011;3539;47.982;12.238;2024-03-08T12:49:11;8.63;;;7.20;;
6997;SDS011;3539;47.982;12.238;2024-03-08T12:51:38;8.10;;;7.23;;
6997;SDS011;3539;47.982;12.238;2024-03-08T12:54:07;8.07;;;7.07;;
6997;SDS011;3539;47.982;12.238;2024-03-08T12:56:34;8.07;;;7.27;;
6997;SDS011;3539;47.982;12.238;2024-03-08T12:59:02;8.87;;;7.70;;
6997;SDS011;3539;47.982;12.238;2024-03-08T13:01:30;9.43;;;7.50;;
6997;SDS011;3539;47.982;12.238;2024-03-08T13:03:58;8.47;;;7.57;;
6997;SDS011;3539;47.982;12.238;2024-03-08T13:06:25;8.77;;;7.07;;
6997;SDS011;3539;47.982;12.238;2024-03-08T13:08:54;8.47;;;7.53;;
6997;SDS011;3539;47.982;12.238;2024-03-08T13:11:22;8.63;;;7.40;;
6997;SDS011;3539;47.982;12.238;2024-03-08T13:13:49;8.73;;;7.57;;
6997;SDS011;3539;47.982;12.238;2024-03-08T13:16:17;9.23;;;7.13;;
6997;SDS011;3539;47.982;12.238;2024-03-08T13:18:44;9.30;;;6.97;;
6997;SDS011;3539;47.982;12.238;2024-03-08T13:21:13;8.13;;;7.33;;
6997;SDS011;3539;47.982;12.238;2024-03-08T13:23:44;9.87;;;8.10;;
6997;SDS011;3539;47.982;12.238;2024-03-08T13:26:14;8.93;;;7.53;;
6997;SDS011;3539;47.982;12.238;2024-03-08T13:28:44;8.77;;;7.60;;
6997;SDS011;3539;47.982;12.238;2024-03-08T13:31:12;11.17;;;8.77;;
6997;SDS011;3539;47.982;12.238;2024-03-08T13:33:40;8.47;;;7.57;;
6997;SDS011;3539;47.982;12.238;2024-03-08T13:36:10;8.40;;;6.87;;
6997;SDS011;3539;47.982;12.238;2024-03-08T13:38:40;9.30;;;8.07;;
6997;SDS011;3539;47.982;12.238;2024-03-08T13:41:09;8.67;;;7.77;;
6997;SDS011;3539;47.982;12.238;2024-03-08T13:43:36;8.67;;;7.77;;
6997;SDS011;3539;47.982;12.238;2024-03-08T13:46:04;8.87;;;7.87;;
6997;SDS011;3539;47.982;12.238;2024-03-08T13:48:32;9.43;;;8.43;;
6997;SDS011;3539;47.982;12.238;2024-03-08T13:50:59;8.50;;;7.60;;
6997;SDS011;3539;47.982;12.238;2024-03-08T13:53:25;8.33;;;7.37;;
6997;SDS011;3539;47.982;12.238;2024-03-08T13:55:52;9.83;;;8.13;;
6997;SDS011;3539;47.982;12.238;2024-03-08T13:58:19;10.33;;;8.73;;
6997;SDS011;3539;47.982;12.238;2024-03-08T14:00:46;8.80;;;7.60;;
6997;SDS011;3539;47.982;12.238;2024-03-08T14:03:15;10.20;;;8.73;;
6997;SDS011;3539;47.982;12.238;2024-03-08T14:05:42;9.07;;;8.10;;
6997;SDS011;3539;47.982;12.238;2024-03-08T14:08:10;10.97;;;8.27;;
6997;SDS011;3539;47.982;12.238;2024-03-08T14:10:37;10.07;;;8.70;;
6997;SDS011;3539;47.982;12.238;2024-03-08T14:13:04;9.13;;;8.23;;
6997;SDS011;3539;47.982;12.238;2024-03-08T14:15:32;9.50;;;8.50;;
6997;SDS011;3539;47.982;12.238;2024-03-08T14:17:59;8.77;;;7.87;;
6997;SDS011;3539;47.982;12.238;2024-03-08T14:20:28;9.77;;;8.23;;
6997;SDS011;3539;47.982;12.238;2024-03-08T14:22:55;10.80;;;7.63;;
6997;SDS011;3539;47.982;12.238;2024-03-08T14:25:22;8.57;;;7.43;;
6997;SDS011;3539;47.982;12.238;2024-03-08T14:27:50;10.03;;;8.40;;
6997;SDS011;3539;47.982;12.238;2024-03-08T14:30:18;21.60;;;7.27;;
6997;SDS011;3539;47.982;12.238;2024-03-08T14:32:57;9.17;;;7.70;;
6997;SDS011;3539;47.982;12.238;2024-03-08T14:35:24;9.47;;;7.60;;
6997;SDS011;3539;47.982;12.238;2024-03-08T14:37:53;10.10;;;7.37;;
6997;SDS011;3539;47.982;12.238;2024-03-08T14:40:19;11.07;;;8.10;;
6997;SDS011;3539;47.982;12.238;2024-03-08T14:42:47;8.33;;;7.43;;
6997;SDS011;3539;47.982;12.238;2024-03-08T14:45:15;8.97;;;8.07;;
6997;SDS011;3539;47.982;12.238;2024-03-08T14:47:44;9.43;;;7.70;;
6997;SDS011;3539;47.982;12.238;2024-03-08T14:50:14;8.40;;;7.60;;
6997;SDS011;3539;47.982;12.238;2024-03-08T14:52:42;8.67;;;7.77;;
6997;SDS011;3539;47.982;12.238;2024-03-08T14:55:10;10.00;;;8.23;;
6997;SDS011;3539;47.982;12.238;2024-03-08T14:57:39;11.20;;;8.30;;
6997;SDS011;3539;47.982;12.238;2024-03-08T15:00:07;9.20;;;8.30;;
6997;SDS011;3539;47.982;12.238;2024-03-08T15:02:41;10.23;;;8.37;;
6997;SDS011;3539;47.982;12.238;2024-03-08T15:05:08;10.37;;;8.83;;
6997;SDS011;3539;47.982;12.238;2024-03-08T15:07:36;10.27;;;8.70;;
6997;SDS011;3539;47.982;12.238;2024-03-08T15:10:05;9.53;;;8.03;;
6997;SDS011;3539;47.982;12.238;2024-03-08T15:12:37;9.03;;;7.87;;
6997;SDS011;3539;47.982;12.238;2024-03-08T15:15:06;10.13;;;7.83;;
6997;SDS011;3539;47.982;12.238;2024-03-08T15:17:35;10.30;;;8.80;;
6997;SDS011;3539;47.982;12.238;2024-03-08T15:20:05;10.93;;;8.33;;
6997;SDS011;3539;47.982;12.238;2024-03-08T15:22:40;9.57;;;8.43;;
6997;SDS011;3539;47.982;12.238;2024-03-08T15:25:08;9.63;;;8.67;;
6997;SDS011;3539;47.982;12.238;2024-03-08T15:27:38;9.60;;;8.50;;
6997;SDS011;3539;47.982;12.238;2024-03-08T15:30:06;9.43;;;8.47;;
6997;SDS011;3539;47.982;12.238;2024-03-08T15:32:38;9.77;;;8.00;;
6997;SDS011;3539;47.982;12.238;2024-03-08T15:35:06;9.40;;;8.33;;
6997;SDS011;3539;47.982;12.238;2024-03-08T15:37:38;9.93;;;8.60;;
6997;SDS011;3539;47.982;12.238;2024-03-08T15:40:07;10.83;;;8.10;;
6997;SDS011;3539;47.982;12.238;2024-03-08T15:42:38;10.53;;;8.90;;
6997;SDS011;3539;47.982;12.238;2024-03-08T15:45:06;11.13;;;8.27;;
6997;SDS011;3539;47.982;12.238;2024-03-08T15:47:34;10.43;;;8.87;;
6997;SDS011;3539;47.982;12.238;2024-03-08T15:50:02;9.70;;;8.67;;
6997;SDS011;3539;47.982;12.238;2024-03-08T15:52:29;10.20;;;9.17;;
6997;SDS011;3539;47.982;12.238;2024-03-08T15:54:56;9.70;;;8.33;;
6997;SDS011;3539;47.982;12.238;2024-03-08T15:57:23;10.67;;;8.40;;
6997;SDS011;3539;47.982;12.238;2024-03-08T15:59:51;8.90;;;7.90;;
6997;SDS011;3539;47.982;12.238;2024-03-08T16:02:19;12.03;;;9.90;;
6997;SDS011;3539;47.982;12.238;2024-03-08T16:04:49;12.30;;;9.27;;
6997;SDS011;3539;47.982;12.238;2024-03-08T16:07:16;10.97;;;9.23;;
6997;SDS011;3539;47.982;12.238;2024-03-08T16:09:43;10.77;;;9.20;;
6997;SDS011;3539;47.982;12.238;2024-03-08T16:12:10;11.33;;;9.00;;
6997;SDS011;3539;47.982;12.238;2024-03-08T16:14:37;12.53;;;9.57;;
6997;SDS011;3539;47.982;12.238;2024-03-08T16:17:05;13.57;;;9.73;;
6997;SDS011;3539;47.982;12.238;2024-03-08T16:19:32;10.80;;;9.70;;
6997;SDS011;3539;47.982;12.238;2024-03-08T16:22:00;13.33;;;10.50;;
6997;SDS011;3539;47.982;12.238;2024-03-08T16:24:27;13.07;;;10.63;;
6997;SDS011;3539;47.982;12.238;2024-03-08T16:26:57;11.17;;;10.07;;
6997;SDS011;3539;47.982;12.238;2024-03-08T16:29:25;13.37;;;11.07;;
6997;SDS011;3539;47.982;12.238;2024-03-08T16:31:53;13.53;;;10.80;;
6997;SDS011;3539;47.982;12.238;2024-03-08T16:34:21;13.47;;;10.90;;
6997;SDS011;3539;47.982;12.238;2024-03-08T16:36:48;12.70;;;11.10;;
6997;SDS011;3539;47.982;12.238;2024-03-08T16:39:17;12.67;;;11.37;;
6997;SDS011;3539;47.982;12.238;2024-03-08T16:41:44;12.23;;;10.93;;
6997;SDS011;3539;47.982;12.238;2024-03-08T16:44:12;13.23;;;11.23;;
6997;SDS011;3539;47.982;12.238;2024-03-08T16:46:39;13.20;;;11.40;;
6997;SDS011;3539;47.982;12.238;2024-03-08T16:49:06;12.43;;;10.30;;
6997;SDS011;3539;47.982;12.238;2024-03-08T16:51:34;12.10;;;9.87;;
6997;SDS011;3539;47.982;12.238;2024-03-08T16:54:01;13.00;;;11.30;;
6997;SDS011;3539;47.982;12.238;2024-03-08T16:56:28;15.00;;;10.87;;
6997;SDS011;3539;47.982;12.238;2024-03-08T16:58:56;12.80;;;10.90;;
6997;SDS011;3539;47.982;12.238;2024-03-08T17:01:22;16.23;;;12.00;;
6997;SDS011;3539;47.982;12.238;2024-03-08T17:03:49;15.50;;;12.33;;
6997;SDS011;3539;47.982;12.238;2024-03-08T17:06:17;15.67;;;11.77;;
6997;SDS011;3539;47.982;12.238;2024-03-08T17:08:47;13.80;;;11.70;;
6997;SDS011;3539;47.982;12.238;2024-03-08T17:11:14;15.10;;;12.07;;
6997;SDS011;3539;47.982;12.238;2024-03-08T17:13:41;14.07;;;12.07;;
6997;SDS011;3539;47.982;12.238;2024-03-08T17:16:08;15.67;;;12.83;;
6997;SDS011;3539;47.982;12.238;2024-03-08T17:18:37;14.80;;;12.30;;
6997;SDS011;3539;47.982;12.238;2024-03-08T17:21:04;14.87;;;13.27;;
6997;SDS011;3539;47.982;12.238;2024-03-08T17:23:32;13.87;;;12.47;;
6997;SDS011;3539;47.982;12.238;2024-03-08T17:26:00;16.00;;;14.30;;
6997;SDS011;3539;47.982;12.238;2024-03-08T17:28:29;16.60;;;13.77;;
6997;SDS011;3539;47.982;12.238;2024-03-08T17:30:56;15.37;;;13.70;;
6997;SDS011;3539;47.982;12.238;2024-03-08T17:33:22;15.73;;;13.80;;
6997;SDS011;3539;47.982;12.238;2024-03-08T17:35:50;14.47;;;12.93;;
6997;SDS011;3539;47.982;12.238;2024-03-08T17:38:17;17.40;;;13.57;;
6997;SDS011;3539;47.982;12.238;2024-03-08T17:40:46;16.60;;;13.73;;
6997;SDS011;3539;47.982;12.238;2024-03-08T17:43:15;15.80;;;13.27;;
6997;SDS011;3539;47.982;12.238;2024-03-08T17:45:48;14.90;;;12.80;;
6997;SDS011;3539;47.982;12.238;2024-03-08T17:48:18;15.87;;;13.17;;
6997;SDS011;3539;47.982;12.238;2024-03-08T17:50:45;15.63;;;12.70;;
6997;SDS011;3539;47.982;12.238;2024-03-08T17:53:14;16.73;;;12.73;;
6997;SDS011;3539;47.982;12.238;2024-03-08T17:55:40;17.60;;;13.90;;
6997;SDS011;3539;47.982;12.238;2024-03-08T17:58:08;44.67;;;32.37;;
6997;SDS011;3539;47.982;12.238;2024-03-08T18:00:37;17.07;;;14.00;;
6997;SDS011;3539;47.982;12.238;2024-03-08T18:03:05;17.60;;;14.20;;
6997;SDS011;3539;47.982;12.238;2024-03-08T18:05:35;14.87;;;12.63;;
6997;SDS011;3539;47.982;12.238;2024-03-08T18:08:03;18.10;;;12.73;;
6997;SDS011;3539;47.982;12.238;2024-03-08T18:10:31;16.13;;;13.30;;
6997;SDS011;3539;47.982;12.238;2024-03-08T18:12:59;15.77;;;13.47;;
6997;SDS011;3539;47.982;12.238;2024-03-08T18:15:28;15.23;;;13.60;;
6997;SDS011;3539;47.982;12.238;2024-03-08T18:17:58;17.03;;;14.10;;
6997;SDS011;3539;47.982;12.238;2024-03-08T18:20:25;17.23;;;14.90;;
6997;SDS011;3539;47.982;12.238;2024-03-08T18:22:56;16.23;;;13.33;;
6997;SDS011;3539;47.982;12.238;2024-03-08T18:25:23;17.13;;;14.00;;
6997;SDS011;3539;47.982;12.238;2024-03-08T18:27:52;16.50;;;14.17;;
6997;SDS011;3539;47.982;12.238;2024-03-08T18:30:19;15.70;;;13.93;;
6997;SDS011;3539;47.982;12.238;2024-03-08T18:32:48;16.37;;;13.30;;
6997;SDS011;3539;47.982;12.238;2024-03-08T18:35:18;15.77;;;12.80;;
6997;SDS011;3539;47.982;12.238;2024-03-08T18:37:45;16.27;;;14.23;;
6997;SDS011;3539;47.982;12.238;2024-03-08T18:40:12;16.37;;;13.83;;
6997;SDS011;3539;47.982;12.238;2024-03-08T18:42:40;14.27;;;12.73;;
6997;SDS011;3539;47.982;12.238;2024-03-08T18:45:08;14.33;;;12.50;;
6997;SDS011;3539;47.982;12.238;2024-03-08T18:47:36;16.70;;;11.40;;
6997;SDS011;3539;47.982;12.238;2024-03-08T18:50:03;14.70;;;12.77;;
6997;SDS011;3539;47.982;12.238;2024-03-08T18:52:33;15.20;;;13.60;;
6997;SDS011;3539;47.982;12.238;2024-03-08T18:55:01;15.73;;;13.67;;
6997;SDS011;3539;47.982;12.238;2024-03-08T18:57:34;15.20;;;12.83;;
6997;SDS011;3539;47.982;12.238;2024-03-08T19:00:05;14.60;;;12.73;;
6997;SDS011;3539;47.982;12.238;2024-03-08T19:02:38;13.67;;;12.20;;
6997;SDS011;3539;47.982;12.238;2024-03-08T19:05:06;13.23;;;11.93;;
6997;SDS011;3539;47.982;12.238;2024-03-08T19:07:42;13.93;;;9.97;;
6997;SDS011;3539;47.982;12.238;2024-03-08T19:10:09;15.07;;;10.17;;
6997;SDS011;3539;47.982;12.238;2024-03-08T19:12:38;14.07;;;12.43;;
6997;SDS011;3539;47.982;12.238;2024-03-08T19:15:06;14.60;;;11.77;;
6997;SDS011;3539;47.982;12.238;2024-03-08T19:17:34;13.13;;;11.73;;
6997;SDS011;3539;47.982;12.238;2024-03-08T19:20:02;13.83;;;12.43;;
6997;SDS011;3539;47.982;12.238;2024-03-08T19:22:31;12.57;;;11.27;;
6997;SDS011;3539;47.982;12.238;2024-03-08T19:24:59;12.70;;;11.37;;
6997;SDS011;3539;47.982;12.238;2024-03-08T19:27:30;13.13;;;11.73;;
6997;SDS011;3539;47.982;12.238;2024-03-08T19:29:56;12.70;;;11.40;;
6997;SDS011;3539;47.982;12.238;2024-03-08T19:32:24;14.23;;;12.17;;
6997;SDS011;3539;47.982;12.238;2024-03-08T19:34:51;12.87;;;11.47;;
6997;SDS011;3539;47.982;12.238;2024-03-08T19:37:18;13.07;;;11.63;;
6997;SDS011;3539;47.982;12.238;2024-03-08T19:39:46;12.63;;;11.33;;
6997;SDS011;3539;47.982;12.238;2024-03-08T19:42:14;13.97;;;9.17;;
6997;SDS011;3539;47.982;12.238;2024-03-08T19:44:42;13.47;;;11.43;;
6997;SDS011;3539;47.982;12.238;2024-03-08T19:47:13;14.17;;;11.47;;
6997;SDS011;3539;47.982;12.238;2024-03-08T19:49:41;12.97;;;11.67;;
6997;SDS011;3539;47.982;12.238;2024-03-08T19:52:08;13.23;;;11.93;;
6997;SDS011;3539;47.982;12.238;2024-03-08T19:54:35;12.30;;;11.03;;
6997;SDS011;3539;47.982;12.238;2024-03-08T19:57:03;12.90;;;11.50;;
6997;SDS011;3539;47.982;12.238;2024-03-08T19:59:33;12.00;;;10.73;;
6997;SDS011;3539;47.982;12.238;2024-03-08T20:02:06;11.87;;;7.90;;
6997;SDS011;3539;47.982;12.238;2024-03-08T20:04:33;12.47;;;10.60;;
6997;SDS011;3539;47.982;12.238;2024-03-08T20:07:00;13.53;;;10.87;;
6997;SDS011;3539;47.982;12.238;2024-03-08T20:09:27;12.03;;;10.73;;
6997;SDS011;3539;47.982;12.238;2024-03-08T20:11:54;12.13;;;10.73;;
6997;SDS011;3539;47.982;12.238;2024-03-08T20:14:21;13.10;;;8.97;;
6997;SDS011;3539;47.982;12.238;2024-03-08T20:16:51;13.07;;;11.77;;
6997;SDS011;3539;47.982;12.238;2024-03-08T20:19:18;13.57;;;12.20;;
6997;SDS011;3539;47.982;12.238;2024-03-08T20:21:47;14.87;;;12.87;;
6997;SDS011;3539;47.982;12.238;2024-03-08T20:24:14;14.60;;;13.10;;
6997;SDS011;3539;47.982;12.238;2024-03-08T20:26:40;15.10;;;13.53;;
6997;SDS011;3539;47.982;12.238;2024-03-08T20:29:08;13.97;;;12.57;;
6997;SDS011;3539;47.982;12.238;2024-03-08T20:31:38;14.87;;;13.27;;
6997;SDS011;3539;47.982;12.238;2024-03-08T20:34:06;15.17;;;13.13;;
6997;SDS011;3539;47.982;12.238;2024-03-08T20:36:34;14.47;;;12.97;;
6997;SDS011;3539;47.982;12.238;2024-03-08T20:39:02;13.70;;;12.27;;
6997;SDS011;3539;47.982;12.238;2024-03-08T20:41:33;15.77;;;13.00;;
6997;SDS011;3539;47.982;12.238;2024-03-08T20:44:01;13.47;;;12.03;;
6997;SDS011;3539;47.982;12.238;2024-03-08T20:46:29;13.63;;;12.00;;
6997;SDS011;3539;47.982;12.238;2024-03-08T20:48:56;14.93;;;13.33;;
6997;SDS011;3539;47.982;12.238;2024-03-08T20:51:27;14.70;;;13.13;;
6997;SDS011;3539;47.982;12.238;2024-03-08T20:53:54;13.77;;;12.37;;
6997;SDS011;3539;47.982;12.238;2024-03-08T20:56:21;14.87;;;13.00;;
6997;SDS011;3539;47.982;12.238;2024-03-08T20:58:48;12.10;;;7.40;;
6997;SDS011;3539;47.982;12.238;2024-03-08T21:01:15;14.60;;;12.57;;
6997;SDS011;3539;47.982;12.238;2024-03-08T21:03:42;12.77;;;7.97;;